Time;durP1;ratioP1;P1;durP2;ratioP2;P2;SDS_P1;SDS_P2;PMS_P1;PMS_P2;Temp;Humidity;BMP_temperature;BMP_pressure;BME280_temperature;BME280_humidity;BME280_pressure;Samples;Min_cycle;Max_cycle;Signal;HPM_P1;HPM_P2
2020/12/22 00:01:17;;;;;;;39.23;6.93;;;11.60;99.90;;;;;;5030032;28;20857;-84
2020/12/22 00:03:44;;;;;;;30.80;7.67;;;11.60;99.90;;;;;;5029421;28;20210;-85
2020/12/22 00:06:11;;;;;;;43.60;7.73;;;11.60;99.90;;;;;;5029540;28;20213;-84
2020/12/22 00:08:38;;;;;;;37.23;8.10;;;11.60;99.90;;;;;;5029711;28;20210;-83
2020/12/22 00:11:05;;;;;;;34.47;5.73;;;11.60;99.90;;;;;;5029651;28;20203;-84
2020/12/22 00:13:32;;;;;;;26.87;5.57;;;11.60;99.90;;;;;;5029177;28;20221;-84
2020/12/22 00:15:58;;;;;;;37.80;6.03;;;11.60;99.90;;;;;;5028797;28;20218;-83
2020/12/22 00:18:24;;;;;;;29.57;6.70;;;11.60;99.90;;;;;;5029238;28;20632;-85
2020/12/22 00:20:51;;;;;;;33.50;8.03;;;11.60;99.90;;;;;;5029097;28;20238;-83
2020/12/22 00:23:17;;;;;;;33.27;6.20;;;11.60;99.90;;;;;;5028813;28;20206;-85
2020/12/22 00:25:44;;;;;;;37.67;7.03;;;11.60;99.90;;;;;;5028036;28;20210;-83
2020/12/22 00:28:11;;;;;;;41.57;7.83;;;11.60;99.90;;;;;;5027650;28;20223;-82
2020/12/22 00:30:38;;;;;;;48.23;8.13;;;11.60;99.90;;;;;;5028279;28;20204;-83
2020/12/22 00:33:05;;;;;;;45.67;8.93;;;11.60;99.90;;;;;;5027930;28;20243;-84
2020/12/22 00:35:32;;;;;;;36.70;6.33;;;11.60;99.90;;;;;;5028483;28;20861;-83
2020/12/22 00:37:59;;;;;;;21.07;5.67;;;11.60;99.90;;;;;;5029148;28;20202;-83
2020/12/22 00:40:26;;;;;;;22.77;5.47;;;11.60;99.90;;;;;;5029366;28;20203;-85
2020/12/22 00:42:52;;;;;;;22.57;4.87;;;11.60;99.90;;;;;;5030942;28;20199;-86
2020/12/22 00:45:19;;;;;;;12.67;3.53;;;11.60;99.90;;;;;;5029185;28;20194;-86
2020/12/22 00:47:46;;;;;;;8.70;2.00;;;11.50;99.90;;;;;;5028824;28;20233;-83
2020/12/22 00:50:12;;;;;;;8.50;2.20;;;11.50;99.90;;;;;;5029278;28;20233;-85
2020/12/22 00:52:39;;;;;;;4.63;1.60;;;11.50;99.90;;;;;;5029028;28;20218;-83
2020/12/22 00:55:06;;;;;;;9.27;2.07;;;11.60;99.90;;;;;;5029306;28;20210;-84
2020/12/22 00:57:33;;;;;;;10.23;3.00;;;11.60;99.90;;;;;;5028912;28;20206;-85
2020/12/22 00:59:59;;;;;;;10.13;2.50;;;11.50;99.90;;;;;;5028870;28;20210;-84
2020/12/22 01:02:25;;;;;;;16.23;4.00;;;11.50;99.90;;;;;;5028922;28;20198;-83
2020/12/22 01:04:53;;;;;;;15.30;3.53;;;11.50;99.90;;;;;;5029349;28;20207;-84
2020/12/22 01:07:19;;;;;;;15.27;4.17;;;11.50;99.90;;;;;;5027700;28;20226;-83
2020/12/22 01:09:45;;;;;;;20.27;5.20;;;11.50;99.90;;;;;;5028733;28;20217;-85
2020/12/22 01:12:13;;;;;;;23.97;7.03;;;11.50;99.90;;;;;;5027912;28;20206;-83
2020/12/22 01:14:39;;;;;;;26.83;6.20;;;11.50;99.90;;;;;;5028139;28;20602;-85
2020/12/22 01:17:05;;;;;;;14.60;4.00;;;11.50;99.90;;;;;;5027731;28;20233;-84
2020/12/22 01:19:32;;;;;;;20.20;4.87;;;11.60;99.90;;;;;;5027802;28;20285;-84
2020/12/22 01:21:59;;;;;;;18.60;5.90;;;11.50;99.90;;;;;;5028250;28;20207;-83
2020/12/22 01:24:25;;;;;;;20.37;5.80;;;11.60;99.90;;;;;;5027606;28;20773;-82
2020/12/22 01:26:52;;;;;;;27.67;6.10;;;11.60;99.90;;;;;;5025971;28;20227;-83
2020/12/22 01:29:19;;;;;;;17.50;5.63;;;11.60;99.90;;;;;;5022333;28;20206;-82
2020/12/22 01:31:47;;;;;;;30.37;6.97;;;11.70;99.90;;;;;;5025661;28;20267;-84
2020/12/22 01:34:14;;;;;;;20.50;5.33;;;11.70;99.90;;;;;;5028511;28;20225;-85
2020/12/22 01:36:40;;;;;;;19.43;5.53;;;11.70;99.90;;;;;;5028835;28;20865;-84
2020/12/22 01:39:07;;;;;;;21.57;6.33;;;11.60;99.90;;;;;;5028852;28;20198;-85
2020/12/22 01:41:35;;;;;;;23.10;6.83;;;11.60;99.90;;;;;;5027827;28;20198;-83
2020/12/22 01:44:06;;;;;;;13.47;5.93;;;11.60;99.90;;;;;;5028705;28;20203;-84
2020/12/22 01:46:35;;;;;;;18.07;6.03;;;11.60;99.90;;;;;;5031598;28;20230;-83
2020/12/22 01:49:03;;;;;;;16.60;5.93;;;11.60;99.90;;;;;;5029487;28;20194;-83
2020/12/22 01:51:29;;;;;;;22.53;6.23;;;11.60;99.90;;;;;;5030894;28;20206;-82
2020/12/22 01:53:56;;;;;;;15.30;4.50;;;11.60;99.90;;;;;;5031458;28;20215;-82
2020/12/22 01:56:23;;;;;;;14.77;5.60;;;11.60;99.90;;;;;;5030046;28;20199;-81
2020/12/22 01:58:50;;;;;;;17.93;5.23;;;11.70;99.90;;;;;;5031638;28;20225;-82
2020/12/22 02:01:16;;;;;;;11.73;5.47;;;11.70;99.90;;;;;;5031775;28;20249;-83
2020/12/22 02:03:43;;;;;;;25.30;7.20;;;11.60;99.90;;;;;;5032261;28;20210;-82
2020/12/22 02:06:10;;;;;;;14.90;5.80;;;11.70;99.90;;;;;;5031684;28;20487;-83
2020/12/22 02:08:36;;;;;;;21.67;6.53;;;11.70;99.90;;;;;;5030762;28;20203;-82
2020/12/22 02:11:02;;;;;;;21.53;6.17;;;11.70;99.90;;;;;;5031829;28;20198;-83
2020/12/22 02:13:29;;;;;;;26.37;6.57;;;11.70;99.90;;;;;;5031221;28;20211;-82
2020/12/22 02:15:56;;;;;;;15.30;4.97;;;11.70;99.90;;;;;;5031613;28;20309;-83
2020/12/22 02:18:23;;;;;;;25.70;6.47;;;11.70;99.90;;;;;;5031036;28;20797;-84
2020/12/22 02:20:49;;;;;;;19.03;5.67;;;11.70;99.90;;;;;;5035510;28;20233;-81
2020/12/22 02:23:16;;;;;;;23.87;6.07;;;11.70;99.90;;;;;;5049325;28;20198;-81
2020/12/22 02:25:47;;;;;;;27.43;6.63;;;11.70;99.90;;;;;;5050560;28;20221;-81
2020/12/22 02:28:14;;;;;;;27.27;7.83;;;11.70;99.90;;;;;;5048823;28;20589;-81
2020/12/22 02:30:40;;;;;;;29.93;7.20;;;11.80;99.90;;;;;;5049833;28;20648;-81
2020/12/22 02:33:07;;;;;;;31.70;7.27;;;11.70;99.90;;;;;;5049219;28;20206;-81
2020/12/22 02:35:33;;;;;;;32.03;7.40;;;11.70;99.90;;;;;;5049779;28;20213;-82
2020/12/22 02:38:00;;;;;;;33.33;7.73;;;11.80;99.90;;;;;;5049396;28;20202;-82
2020/12/22 02:40:27;;;;;;;35.00;7.37;;;11.80;99.90;;;;;;5050273;28;20209;-84
2020/12/22 02:42:58;;;;;;;47.23;8.97;;;11.80;99.90;;;;;;5049445;28;20206;-80
2020/12/22 02:45:24;;;;;;;43.10;7.77;;;11.80;99.90;;;;;;5049034;28;20228;-81
2020/12/22 02:47:50;;;;;;;36.23;7.40;;;11.80;99.90;;;;;;5048850;28;20233;-82
2020/12/22 02:50:16;;;;;;;40.10;7.20;;;11.80;99.90;;;;;;5046812;28;20255;-82
2020/12/22 02:52:43;;;;;;;43.77;8.00;;;11.80;99.90;;;;;;5047731;28;20648;-83
2020/12/22 02:55:09;;;;;;;43.93;6.80;;;11.80;99.90;;;;;;5046874;28;20205;-80
2020/12/22 02:57:36;;;;;;;40.33;6.67;;;11.80;99.90;;;;;;5046605;28;20817;-82
2020/12/22 03:00:04;;;;;;;50.27;7.30;;;11.80;99.90;;;;;;5047244;28;20264;-81
2020/12/22 03:02:30;;;;;;;45.33;8.53;;;11.90;99.90;;;;;;5048690;28;20190;-83
2020/12/22 03:04:56;;;;;;;53.33;10.77;;;11.80;99.90;;;;;;5048267;28;20202;-81
2020/12/22 03:07:23;;;;;;;36.73;9.10;;;11.90;99.90;;;;;;5048468;28;20222;-82
2020/12/22 03:09:49;;;;;;;40.93;8.53;;;11.90;99.90;;;;;;5048347;28;20287;-83
2020/12/22 03:12:15;;;;;;;44.93;8.00;;;11.90;99.90;;;;;;5048036;28;20467;-84
2020/12/22 03:14:42;;;;;;;43.23;9.67;;;11.90;99.90;;;;;;5048131;28;20210;-82
2020/12/22 03:17:08;;;;;;;44.80;10.03;;;11.90;99.90;;;;;;5047452;28;20225;-82
2020/12/22 03:19:37;;;;;;;47.97;8.87;;;11.90;99.90;;;;;;5047857;28;20986;-81
2020/12/22 03:22:04;;;;;;;44.53;8.50;;;11.90;99.90;;;;;;5032922;28;20419;-85
2020/12/22 03:24:30;;;;;;;49.07;9.90;;;11.90;99.90;;;;;;5027587;28;20241;-81
2020/12/22 03:26:56;;;;;;;43.80;8.27;;;11.90;99.90;;;;;;5026771;28;20285;-81
2020/12/22 03:29:23;;;;;;;52.03;8.83;;;11.90;99.90;;;;;;5027568;28;20211;-80
2020/12/22 03:31:50;;;;;;;41.47;8.37;;;11.90;99.90;;;;;;5027229;28;20784;-83
2020/12/22 03:34:16;;;;;;;47.23;9.40;;;11.90;99.90;;;;;;5026421;28;20241;-82
2020/12/22 03:36:43;;;;;;;49.17;8.77;;;11.90;99.90;;;;;;5027091;28;20206;-80
2020/12/22 03:39:09;;;;;;;42.43;7.63;;;11.90;99.90;;;;;;5027898;28;20214;-81
2020/12/22 03:41:35;;;;;;;50.03;10.13;;;11.90;99.90;;;;;;5027464;28;20613;-82
2020/12/22 03:44:01;;;;;;;40.17;9.47;;;11.80;99.90;;;;;;5027521;28;20210;-83
2020/12/22 03:46:28;;;;;;;49.33;8.60;;;11.90;99.90;;;;;;5028370;28;20215;-80
2020/12/22 03:48:55;;;;;;;43.17;9.47;;;11.90;99.90;;;;;;5028527;28;20222;-81
2020/12/22 03:51:21;;;;;;;49.57;8.73;;;11.90;99.90;;;;;;5028941;28;20239;-81
2020/12/22 03:53:48;;;;;;;49.40;9.50;;;11.90;99.90;;;;;;5028054;28;20261;-80
2020/12/22 03:56:14;;;;;;;46.77;8.10;;;11.90;99.90;;;;;;5026919;28;20207;-80
2020/12/22 03:58:40;;;;;;;34.87;7.10;;;11.80;99.90;;;;;;5026751;28;20245;-80
2020/12/22 04:01:06;;;;;;;39.80;7.57;;;11.80;99.90;;;;;;5025288;28;20213;-82
2020/12/22 04:03:32;;;;;;;40.70;7.17;;;11.80;99.90;;;;;;5023869;28;20257;-82
2020/12/22 04:05:59;;;;;;;45.40;7.60;;;11.80;99.90;;;;;;5023345;28;20521;-83
2020/12/22 04:08:26;;;;;;;39.27;7.97;;;11.80;99.90;;;;;;5021833;28;20227;-82
2020/12/22 04:10:52;;;;;;;45.30;8.13;;;11.80;99.90;;;;;;5025018;28;20206;-83
2020/12/22 04:13:18;;;;;;;39.37;7.17;;;11.80;99.90;;;;;;5026309;28;20591;-81
2020/12/22 04:15:44;;;;;;;40.50;7.37;;;11.70;99.90;;;;;;5023373;28;20194;-81
2020/12/22 04:18:11;;;;;;;44.07;8.40;;;11.80;99.90;;;;;;5024684;28;20198;-81
2020/12/22 04:20:37;;;;;;;38.43;7.53;;;11.80;99.90;;;;;;5027356;28;20335;-81
2020/12/22 04:23:04;;;;;;;43.50;7.60;;;11.70;99.90;;;;;;5044627;28;20256;-81
2020/12/22 04:25:31;;;;;;;56.57;12.50;;;11.80;99.90;;;;;;5045817;28;20201;-85
2020/12/22 04:27:57;;;;;;;44.73;8.90;;;11.70;99.90;;;;;;5045146;28;20236;-85
2020/12/22 04:30:23;;;;;;;46.37;8.53;;;11.80;99.90;;;;;;5042132;28;20205;-86
2020/12/22 04:32:49;;;;;;;44.50;8.47;;;11.80;99.90;;;;;;5042686;28;20190;-84
2020/12/22 04:35:16;;;;;;;45.57;9.13;;;11.70;99.90;;;;;;5042616;28;20194;-87
2020/12/22 04:37:42;;;;;;;42.97;8.67;;;11.70;99.90;;;;;;5044476;28;20194;-82
2020/12/22 04:40:09;;;;;;;41.20;8.90;;;11.70;99.90;;;;;;5047155;28;20210;-82
2020/12/22 04:42:35;;;;;;;38.07;8.47;;;11.70;99.90;;;;;;5048073;28;20217;-82
2020/12/22 04:45:03;;;;;;;41.40;8.80;;;11.70;99.90;;;;;;5048299;28;20613;-85
2020/12/22 04:47:31;;;;;;;37.97;8.10;;;11.70;99.90;;;;;;5048027;28;20222;-87
2020/12/22 04:50:04;;;;;;;40.53;8.07;;;11.70;99.90;;;;;;5047499;28;20230;-79
2020/12/22 04:52:31;;;;;;;38.90;7.63;;;11.70;99.90;;;;;;5047313;28;20248;-82
2020/12/22 04:54:58;;;;;;;50.97;10.33;;;11.70;99.90;;;;;;5047984;28;20229;-85
2020/12/22 04:57:31;;;;;;;49.30;8.50;;;11.70;99.90;;;;;;5048535;28;20208;-85
2020/12/22 04:59:58;;;;;;;44.10;7.90;;;11.70;99.90;;;;;;5047133;28;20224;-83
2020/12/22 05:02:27;;;;;;;35.53;6.83;;;11.70;99.90;;;;;;5047858;28;20811;-83
2020/12/22 05:04:53;;;;;;;48.93;9.97;;;11.70;99.90;;;;;;5048150;28;20198;-84
2020/12/22 05:07:20;;;;;;;50.93;10.10;;;11.70;99.90;;;;;;5048267;28;20686;-84
2020/12/22 05:09:46;;;;;;;49.33;10.77;;;11.70;99.90;;;;;;5048649;28;20206;-83
2020/12/22 05:12:12;;;;;;;44.03;8.87;;;11.70;99.90;;;;;;5048062;28;20551;-85
2020/12/22 05:14:41;;;;;;;51.40;9.03;;;11.70;99.90;;;;;;5049102;28;20198;-84
2020/12/22 05:17:12;;;;;;;54.37;10.00;;;11.80;99.90;;;;;;5048474;28;20245;-88
2020/12/22 05:19:40;;;;;;;36.40;9.40;;;11.80;99.90;;;;;;5047147;28;20256;-84
2020/12/22 05:22:07;;;;;;;45.47;8.37;;;11.80;99.90;;;;;;5036150;28;20280;-86
2020/12/22 05:24:34;;;;;;;39.77;8.50;;;11.80;99.90;;;;;;5032206;28;21015;-85
2020/12/22 05:27:03;;;;;;;40.50;7.97;;;11.70;99.90;;;;;;5030978;28;20258;-86
2020/12/22 05:29:29;;;;;;;37.60;8.03;;;11.80;99.90;;;;;;5031342;28;20286;-83
2020/12/22 05:31:56;;;;;;;52.07;10.17;;;11.70;99.90;;;;;;5031629;28;20345;-87
2020/12/22 05:34:26;;;;;;;35.80;7.77;;;11.70;99.90;;;;;;5031304;28;20214;-86
2020/12/22 05:36:53;;;;;;;47.73;11.20;;;11.70;99.90;;;;;;5031463;28;20630;-86
2020/12/22 05:39:19;;;;;;;48.20;9.23;;;11.70;99.90;;;;;;5031296;28;20206;-83
2020/12/22 05:41:46;;;;;;;41.27;8.40;;;11.60;99.90;;;;;;5031282;28;20603;-82
2020/12/22 05:44:12;;;;;;;49.33;9.13;;;11.60;99.90;;;;;;5030890;28;20211;-83
2020/12/22 05:46:41;;;;;;;47.47;9.80;;;11.70;99.90;;;;;;5030693;28;20313;-86
2020/12/22 05:49:09;;;;;;;30.07;7.33;;;11.70;99.90;;;;;;5031775;28;20211;-84
2020/12/22 05:51:36;;;;;;;46.17;8.23;;;11.70;99.90;;;;;;5030765;28;20947;-82
2020/12/22 05:54:04;;;;;;;37.13;7.27;;;11.70;99.90;;;;;;5029579;28;20245;-83
2020/12/22 05:56:31;;;;;;;41.50;7.53;;;11.60;99.90;;;;;;5030977;28;20345;-86
2020/12/22 05:58:58;;;;;;;39.83;7.47;;;11.70;99.90;;;;;;5031720;28;20201;-83
2020/12/22 06:01:31;;;;;;;52.80;9.53;;;11.60;99.90;;;;;;5029847;28;20210;-85
2020/12/22 06:03:59;;;;;;;39.20;8.07;;;11.60;99.90;;;;;;5030542;28;20513;-81
2020/12/22 06:06:30;;;;;;;41.57;8.03;;;11.60;99.90;;;;;;5030298;28;20195;-87
2020/12/22 06:08:57;;;;;;;39.63;8.93;;;11.60;99.90;;;;;;5025362;28;20238;-85
2020/12/22 06:11:24;;;;;;;45.83;8.90;;;11.60;99.90;;;;;;5028818;28;20237;-87
2020/12/22 06:13:51;;;;;;;48.40;9.50;;;11.60;99.90;;;;;;5033318;28;20206;-86
2020/12/22 06:16:18;;;;;;;50.70;8.47;;;11.60;99.90;;;;;;5032387;28;20226;-86
2020/12/22 06:18:46;;;;;;;32.10;7.83;;;11.60;99.90;;;;;;5033148;28;20207;-87
2020/12/22 06:21:16;;;;;;;42.00;9.00;;;11.60;99.90;;;;;;5040172;28;20229;-85
2020/12/22 06:23:44;;;;;;;39.70;9.53;;;11.60;99.90;;;;;;5052980;28;20202;-87
2020/12/22 06:26:11;;;;;;;50.73;9.77;;;11.60;99.90;;;;;;5052006;28;20210;-85
2020/12/22 06:28:37;;;;;;;36.93;9.23;;;11.60;99.90;;;;;;5051508;28;20267;-87
2020/12/22 06:31:19;;;;;;;41.50;7.97;;;11.60;99.90;;;;;;5051218;28;20206;-86
2020/12/22 06:33:46;;;;;;;52.53;9.40;;;11.60;99.90;;;;;;5052142;28;20198;-86
2020/12/22 06:36:14;;;;;;;57.20;9.10;;;11.60;99.90;;;;;;5051839;28;20206;-86
2020/12/22 06:38:45;;;;;;;38.07;8.93;;;11.60;99.90;;;;;;5052294;28;20279;-85
2020/12/22 06:41:12;;;;;;;42.97;10.43;;;11.60;99.90;;;;;;5050131;28;20209;-82
2020/12/22 06:43:40;;;;;;;42.07;8.97;;;11.50;99.90;;;;;;5051470;28;20248;-86
2020/12/22 06:46:11;;;;;;;35.77;9.10;;;11.60;99.90;;;;;;5047215;28;20512;-84
2020/12/22 06:48:45;;;;;;;45.97;8.47;;;11.60;99.90;;;;;;5045603;28;20233;-86
2020/12/22 06:51:31;;;;;;;45.13;7.90;;;11.60;99.90;;;;;;5045756;28;20295;-85
2020/12/22 06:53:59;;;;;;;31.43;7.10;;;11.60;99.90;;;;;;5047870;28;20225;-83
2020/12/22 06:56:40;;;;;;;43.00;8.53;;;11.60;99.90;;;;;;5049849;28;20219;-84
2020/12/22 06:59:07;;;;;;;37.93;7.13;;;11.60;99.90;;;;;;5048842;28;20233;-83
2020/12/22 07:01:35;;;;;;;38.40;7.80;;;11.60;99.90;;;;;;5049827;28;20210;-84
2020/12/22 07:04:21;;;;;;;37.73;7.27;;;11.70;99.90;;;;;;5048577;28;20232;-83
2020/12/22 07:06:52;;;;;;;40.37;8.37;;;11.60;99.90;;;;;;5048707;28;20202;-85
2020/12/22 07:09:21;;;;;;;49.23;8.23;;;11.60;99.90;;;;;;5048919;28;20500;-84
2020/12/22 07:11:49;;;;;;;44.40;9.20;;;11.60;99.90;;;;;;5048441;28;20213;-84
2020/12/22 07:14:17;;;;;;;43.30;9.87;;;11.60;99.90;;;;;;5048134;28;20213;-83
2020/12/22 07:16:55;;;;;;;44.70;9.47;;;11.60;99.90;;;;;;5047210;28;20229;-82
2020/12/22 07:19:28;;;;;;;47.10;9.97;;;11.60;99.90;;;;;;5044501;28;20209;-82
2020/12/22 07:21:57;;;;;;;36.53;7.73;;;11.60;99.90;;;;;;5031563;28;20235;-81
2020/12/22 07:24:25;;;;;;;50.50;8.33;;;11.60;99.90;;;;;;5025162;28;20217;-81
2020/12/22 07:26:52;;;;;;;33.30;6.80;;;11.60;99.90;;;;;;5024283;28;20310;-81
2020/12/22 07:29:20;;;;;;;43.57;8.13;;;11.60;99.90;;;;;;5023334;28;20553;-83
2020/12/22 07:31:46;;;;;;;42.20;7.50;;;11.60;99.90;;;;;;5024078;28;20203;-80
2020/12/22 07:34:13;;;;;;;40.77;7.17;;;11.60;99.90;;;;;;5025186;28;20214;-80
2020/12/22 07:36:39;;;;;;;47.73;8.23;;;11.60;99.90;;;;;;5025946;28;20207;-82
2020/12/22 07:39:13;;;;;;;57.93;8.00;;;11.60;99.90;;;;;;5024235;28;20199;-81
2020/12/22 07:41:40;;;;;;;48.10;9.80;;;11.60;99.90;;;;;;5025454;28;20209;-81
2020/12/22 07:44:11;;;;;;;36.23;8.80;;;11.60;99.90;;;;;;5024718;28;20206;-81
2020/12/22 07:46:39;;;;;;;44.43;9.73;;;11.60;99.90;;;;;;5024809;28;20249;-81
2020/12/22 07:49:06;;;;;;;44.17;9.27;;;11.60;99.90;;;;;;5025230;28;20233;-82
2020/12/22 07:51:33;;;;;;;46.00;8.83;;;11.70;99.90;;;;;;5025741;28;20313;-81
2020/12/22 07:54:03;;;;;;;40.57;8.30;;;11.70;99.90;;;;;;5024993;28;20211;-82
2020/12/22 07:56:31;;;;;;;41.43;7.00;;;11.80;99.90;;;;;;5007440;28;20214;-81
2020/12/22 07:59:02;;;;;;;32.87;5.83;;;11.80;99.90;;;;;;5025050;28;20203;-82
2020/12/22 08:01:31;;;;;;;30.80;5.17;;;11.80;99.90;;;;;;5026356;28;20205;-80
2020/12/22 08:03:57;;;;;;;25.20;4.27;;;11.70;99.90;;;;;;5025357;28;20309;-79
2020/12/22 08:06:24;;;;;;;25.37;4.97;;;11.60;99.90;;;;;;5022410;28;20210;-81
2020/12/22 08:09:00;;;;;;;23.40;4.73;;;11.60;99.90;;;;;;5022751;28;20230;-80
2020/12/22 08:29:07;;;;;;;13.37;2.47;;;11.10;99.90;;;;;;4713719;29;20959;-78
2020/12/22 08:31:35;;;;;;;10.43;2.10;;;11.00;99.90;;;;;;4802569;29;20485;-79
2020/12/22 08:34:07;;;;;;;10.23;1.80;;;10.90;99.90;;;;;;4928402;28;20238;-78
2020/12/22 08:36:34;;;;;;;7.47;2.27;;;10.90;99.90;;;;;;4981602;28;20203;-80
2020/12/22 08:39:20;;;;;;;8.50;1.80;;;10.90;99.90;;;;;;4981845;28;20708;-79
2020/12/22 08:41:47;;;;;;;8.20;1.90;;;10.80;99.90;;;;;;4981863;28;20204;-79
2020/12/22 08:44:15;;;;;;;15.97;2.93;;;10.80;99.90;;;;;;4981085;28;20208;-79
2020/12/22 08:46:43;;;;;;;12.10;2.27;;;10.80;99.90;;;;;;4981720;28;20242;-79
2020/12/22 08:49:11;;;;;;;14.63;2.60;;;10.80;99.90;;;;;;4983304;28;20240;-80
2020/12/22 08:51:38;;;;;;;12.40;2.60;;;10.70;99.90;;;;;;5000975;28;20211;-82
2020/12/22 08:54:04;;;;;;;17.73;3.03;;;10.80;99.90;;;;;;5009681;28;20210;-82
2020/12/22 08:56:31;;;;;;;10.97;2.87;;;10.70;99.90;;;;;;5019581;28;20218;-82
2020/12/22 08:59:01;;;;;;;12.70;2.80;;;10.80;99.90;;;;;;5024059;28;20211;-82
2020/12/22 09:01:29;;;;;;;12.10;2.73;;;10.70;99.90;;;;;;5024590;28;20202;-78
2020/12/22 09:03:58;;;;;;;13.30;2.30;;;10.70;99.90;;;;;;5023343;28;20202;-83
2020/12/22 09:06:48;;;;;;;11.07;3.50;;;10.70;99.90;;;;;;5023951;28;20291;-82
2020/12/22 09:09:16;;;;;;;9.70;2.20;;;10.70;99.90;;;;;;5004254;28;20231;-78
2020/12/22 09:11:43;;;;;;;12.93;2.87;;;10.70;99.90;;;;;;5023438;28;20669;-82
2020/12/22 09:14:11;;;;;;;8.93;2.63;;;10.70;99.90;;;;;;5024037;28;20218;-85
2020/12/22 09:16:54;;;;;;;14.83;2.83;;;10.70;99.90;;;;;;5024011;28;20234;-84
2020/12/22 09:19:29;;;;;;;14.03;2.90;;;10.70;99.90;;;;;;5022633;28;20215;-79
2020/12/22 09:22:02;;;;;;;13.70;3.13;;;10.70;99.90;;;;;;5024590;28;20220;-82
2020/12/22 09:24:33;;;;;;;6.67;2.40;;;10.70;99.90;;;;;;5026408;28;20205;-80
2020/12/22 09:27:02;;;;;;;13.60;2.33;;;10.70;99.90;;;;;;5026617;28;20198;-81
2020/12/22 09:29:29;;;;;;;7.97;2.10;;;10.70;99.90;;;;;;5026483;28;20576;-82
2020/12/22 09:31:57;;;;;;;13.93;2.93;;;10.70;99.90;;;;;;5024504;28;20195;-82
2020/12/22 09:34:25;;;;;;;13.63;3.00;;;10.70;99.90;;;;;;5024813;28;20218;-82
2020/12/22 09:36:53;;;;;;;10.80;2.23;;;10.70;99.90;;;;;;5025236;28;20506;-81
2020/12/22 09:39:20;;;;;;;8.53;2.20;;;10.70;99.90;;;;;;5024878;28;20297;-79
2020/12/22 09:41:47;;;;;;;14.77;3.13;;;10.70;99.90;;;;;;5025465;28;20477;-80
2020/12/22 09:44:13;;;;;;;11.40;2.83;;;10.70;99.90;;;;;;5025039;28;20210;-81
2020/12/22 09:46:39;;;;;;;14.53;2.40;;;10.70;99.90;;;;;;5023700;28;20207;-80
2020/12/22 09:49:07;;;;;;;14.23;2.47;;;10.80;99.90;;;;;;5024428;28;20238;-81
2020/12/22 09:51:33;;;;;;;15.00;2.70;;;10.80;99.90;;;;;;5024345;28;20261;-81
2020/12/22 09:54:00;;;;;;;13.17;3.23;;;10.80;99.90;;;;;;5024381;28;20214;-81
2020/12/22 09:56:26;;;;;;;14.20;2.43;;;10.80;99.90;;;;;;5024545;28;20586;-81
2020/12/22 09:58:52;;;;;;;13.07;2.93;;;10.80;99.90;;;;;;5024731;28;20221;-81
2020/12/22 10:01:23;;;;;;;13.60;3.30;;;10.80;99.90;;;;;;5006491;28;20610;-81
2020/12/22 10:03:50;;;;;;;10.37;2.77;;;10.80;99.90;;;;;;5024357;28;20195;-81
2020/12/22 10:06:18;;;;;;;9.57;2.47;;;10.80;99.90;;;;;;5025163;28;20201;-82
2020/12/22 10:08:44;;;;;;;10.77;2.43;;;10.80;99.90;;;;;;5027669;28;20223;-81
2020/12/22 10:11:11;;;;;;;7.73;2.33;;;10.70;99.90;;;;;;5027873;28;20206;-79
2020/12/22 10:13:38;;;;;;;7.30;1.90;;;10.80;99.90;;;;;;5027130;28;20945;-80
2020/12/22 10:16:08;;;;;;;10.07;2.53;;;10.80;99.90;;;;;;5027452;28;20229;-81
2020/12/22 10:18:35;;;;;;;11.93;2.23;;;10.80;99.90;;;;;;5027496;28;20207;-81
2020/12/22 10:21:06;;;;;;;5.13;2.03;;;10.70;99.90;;;;;;5033540;28;20205;-81
2020/12/22 10:23:34;;;;;;;7.77;1.90;;;10.70;99.90;;;;;;5047339;28;20761;-82
2020/12/22 10:26:02;;;;;;;6.73;2.20;;;10.70;99.90;;;;;;5046599;28;20202;-83
2020/12/22 10:28:29;;;;;;;9.37;2.17;;;10.60;99.90;;;;;;5046736;28;20624;-81
2020/12/22 10:30:56;;;;;;;7.00;1.83;;;10.70;99.90;;;;;;5046658;28;20238;-82
2020/12/22 10:33:22;;;;;;;10.53;2.17;;;10.70;99.90;;;;;;5045901;28;20210;-82
2020/12/22 10:35:48;;;;;;;9.63;2.23;;;10.70;99.90;;;;;;5046234;28;20228;-80
2020/12/22 10:38:14;;;;;;;6.93;2.17;;;10.60;99.90;;;;;;5046818;28;20202;-81
2020/12/22 10:40:42;;;;;;;12.23;2.37;;;10.60;99.90;;;;;;5046257;28;20244;-81
2020/12/22 10:43:09;;;;;;;5.43;1.47;;;10.70;99.90;;;;;;5044972;28;20206;-81
2020/12/22 10:45:36;;;;;;;6.43;1.70;;;10.70;99.90;;;;;;5043009;28;20202;-81
2020/12/22 10:48:02;;;;;;;5.37;2.00;;;10.60;99.90;;;;;;5043662;28;20312;-79
2020/12/22 10:50:30;;;;;;;4.50;1.50;;;10.60;99.90;;;;;;5046426;28;20194;-82
2020/12/22 10:52:57;;;;;;;6.07;1.80;;;10.70;99.90;;;;;;5047012;28;20264;-80
2020/12/22 10:55:24;;;;;;;8.87;2.10;;;10.70;99.90;;;;;;5046560;28;20190;-81
2020/12/22 10:57:51;;;;;;;4.63;1.80;;;10.70;99.90;;;;;;5048130;28;20217;-82
2020/12/22 11:00:17;;;;;;;3.33;1.60;;;10.70;99.90;;;;;;5047520;28;20202;-83
2020/12/22 11:02:45;;;;;;;4.97;1.60;;;10.70;99.90;;;;;;5048547;28;20194;-80
2020/12/22 11:05:11;;;;;;;9.07;1.80;;;10.70;99.90;;;;;;5047415;28;20697;-81
2020/12/22 11:07:42;;;;;;;8.37;2.37;;;10.80;99.90;;;;;;5047708;28;20222;-82
2020/12/22 11:10:08;;;;;;;9.50;2.13;;;10.80;99.90;;;;;;5047352;28;20212;-81
2020/12/22 11:12:34;;;;;;;5.60;1.70;;;10.80;99.90;;;;;;5047745;28;20190;-81
2020/12/22 11:15:01;;;;;;;11.03;2.53;;;10.80;99.90;;;;;;5046350;28;20190;-80
2020/12/22 11:17:28;;;;;;;8.03;2.27;;;10.80;99.90;;;;;;5042883;28;20240;-80
2020/12/22 11:19:54;;;;;;;10.00;2.37;;;10.80;99.90;;;;;;5045004;28;20271;-81
2020/12/22 11:22:21;;;;;;;3.53;1.80;;;10.80;99.90;;;;;;5049197;28;20210;-81
2020/12/22 11:24:47;;;;;;;9.03;2.63;;;10.80;99.90;;;;;;5048062;28;20201;-82
2020/12/22 11:27:13;;;;;;;6.60;2.20;;;10.80;99.90;;;;;;5049002;28;20198;-81
2020/12/22 11:29:40;;;;;;;5.03;2.03;;;10.90;99.90;;;;;;5048306;28;20242;-82
2020/12/22 11:32:09;;;;;;;5.37;1.97;;;10.90;99.90;;;;;;5049993;28;20209;-83
2020/12/22 11:34:36;;;;;;;5.40;2.30;;;10.90;99.90;;;;;;5049461;28;20222;-83
2020/12/22 11:37:02;;;;;;;11.10;2.33;;;10.80;99.90;;;;;;5050375;28;20202;-83
2020/12/22 11:39:29;;;;;;;7.57;2.13;;;10.80;99.90;;;;;;5050343;28;20260;-84
2020/12/22 11:42:00;;;;;;;4.40;1.70;;;10.90;99.90;;;;;;5049985;28;20641;-82
2020/12/22 11:44:27;;;;;;;5.10;1.80;;;10.80;99.90;;;;;;5047681;28;20225;-79
2020/12/22 11:46:53;;;;;;;8.03;2.23;;;10.80;99.90;;;;;;5047484;28;20602;-80
2020/12/22 11:49:21;;;;;;;9.83;2.13;;;10.90;99.90;;;;;;5051255;28;20849;-84
2020/12/22 11:51:47;;;;;;;7.57;2.00;;;10.90;99.90;;;;;;5050503;28;20198;-86
2020/12/22 11:54:13;;;;;;;12.20;2.20;;;10.90;99.90;;;;;;5050001;28;20201;-86
2020/12/22 11:56:40;;;;;;;7.70;2.17;;;10.90;99.90;;;;;;5051544;28;20252;-87
2020/12/22 11:59:06;;;;;;;8.07;2.30;;;10.90;99.90;;;;;;5050380;28;20207;-86
2020/12/22 12:01:32;;;;;;;5.70;2.10;;;10.80;99.90;;;;;;5050533;28;20190;-86
2020/12/22 12:04:01;;;;;;;10.20;2.47;;;10.80;99.90;;;;;;5050762;28;20532;-87
2020/12/22 12:06:28;;;;;;;11.80;2.30;;;10.70;99.90;;;;;;5047213;28;20294;-81
2020/12/22 12:08:54;;;;;;;8.07;1.63;;;10.70;99.90;;;;;;5046943;28;20228;-85
2020/12/22 12:11:21;;;;;;;6.20;1.50;;;10.70;99.90;;;;;;5046342;28;20836;-81
2020/12/22 12:13:47;;;;;;;11.30;2.43;;;10.60;99.90;;;;;;5045686;28;20198;-79
2020/12/22 12:16:17;;;;;;;9.23;2.10;;;10.60;99.90;;;;;;5044447;28;20216;-79
2020/12/22 12:18:43;;;;;;;11.10;2.77;;;10.60;99.90;;;;;;5045121;28;20202;-80
2020/12/22 12:21:14;;;;;;;9.03;2.00;;;10.50;99.90;;;;;;5037036;28;20233;-79
2020/12/22 12:23:42;;;;;;;9.53;2.30;;;10.50;99.90;;;;;;5024947;28;20306;-81
2020/12/22 12:26:08;;;;;;;18.87;3.67;;;10.60;99.90;;;;;;5024338;28;20206;-79
2020/12/22 12:28:34;;;;;;;11.80;2.90;;;10.50;99.90;;;;;;5023712;28;20222;-81
2020/12/22 12:31:01;;;;;;;10.70;2.50;;;10.60;99.90;;;;;;5025844;28;20226;-84
2020/12/22 12:33:27;;;;;;;7.47;2.23;;;10.60;99.90;;;;;;5026912;28;20246;-80
2020/12/22 12:35:53;;;;;;;11.57;3.13;;;10.60;99.90;;;;;;5026009;28;20198;-83
2020/12/22 12:38:20;;;;;;;8.50;2.43;;;10.60;99.90;;;;;;5024479;28;20203;-80
2020/12/22 12:40:50;;;;;;;12.70;3.27;;;10.50;99.90;;;;;;5024518;28;20203;-79
2020/12/22 12:43:16;;;;;;;10.60;2.87;;;10.50;99.90;;;;;;5023992;28;20932;-80
2020/12/22 12:45:42;;;;;;;11.03;3.00;;;10.50;99.90;;;;;;5024281;28;20209;-80
2020/12/22 12:48:09;;;;;;;12.27;3.00;;;10.50;99.90;;;;;;5024176;28;20887;-81
2020/12/22 12:50:35;;;;;;;11.03;2.30;;;10.50;99.90;;;;;;5023431;28;20210;-80
2020/12/22 12:53:01;;;;;;;11.07;3.60;;;10.50;99.90;;;;;;5042630;28;20217;-78
2020/12/22 12:55:28;;;;;;;13.07;2.80;;;10.60;99.90;;;;;;5043478;28;20263;-79
2020/12/22 12:57:56;;;;;;;11.20;3.10;;;10.50;99.90;;;;;;5042975;28;20199;-79